Aérodrome :
LOGIN :

S'inscrire | Disclaimer

   EN    FR    IT 

 










Légende :    VFR   VFR Marginal   IFR   IFR Intensif   IFR Très Intensif
Visi : 
Plafond : 
>= 8 km
>= 3000ft
5 à 8 km
1000 à 3000 ft
1500m à 5 km
500 à 1000 ft
800 à 1500m
200 à 500 ft
< 800m
< 200 ft
Symboles :   Orages  Brouillard  Fortes neiges  Fortes précipitations  Vent > 20 kt
SIGMETs :   Divers  Orages  Givrage  Turbulence  Onde Orograph.  Cendres Volcan.







- Altitude de l'aérodrome : 65 ft
- Code IATA : PIK
- Voir les cartes d'approche


EGPK - Glasgow Prestwick

DERNIER METAR :
  • 242320Z 02004KT 9999 FEW030 13/09 Q1024

METARs EXPIRÉS :
  • 242250Z 03005KT 9999 FEW030 14/10 Q1024
  • 242220Z 03005KT 9999 FEW030 14/10 Q1024
  • 242150Z 02003KT 9999 FEW030 15/10 Q1024
  • 242120Z 04005KT 9999 FEW030 16/11 Q1024
  • 242050Z 03007KT 9999 FEW035 17/11 Q1023

TAF TAF EGPK
Valide du 24 à 18h jusqu'au 25 à 18h UTC


241656Z 2418/2518 07008KT 9999 FEW020
Pas de NOTAMs connus pour ce terrain.



MET'MAP, la Météo Aéronautique d'un coup d'oeil ! - Copyright ORBIFLY Décembre 2007 - Disclaimer

ORBIFLY MET'MAP TEAM :

Programmation & Développement : Alexandra Zaïnal
Conception & Développement : Baudouin d'Aumeries
Co-Programmation & Développement : Marc-Olivier Méhu
Soutien technique & logistique : Manuel Goepfert

Contact : metmap@orbifly.com




SOURCES & CREDITS :

   NOAA